createdAt,value
2022-09-10T00:00:06.522Z,63.29
2022-09-10T00:02:34.079Z,63.33
2022-09-10T00:05:01.657Z,63.31
2022-09-10T00:07:29.443Z,63.44
2022-09-10T00:09:56.916Z,63.45
2022-09-10T00:12:24.496Z,63.50
2022-09-10T00:14:52.071Z,63.61
2022-09-10T00:17:19.565Z,63.61
2022-09-10T00:19:47.173Z,63.68
2022-09-10T00:22:14.663Z,63.99
2022-09-10T00:24:42.176Z,64.07
2022-09-10T00:27:09.658Z,64.04
2022-09-10T00:29:37.184Z,63.81
2022-09-10T00:32:04.830Z,63.58
2022-09-10T00:34:32.405Z,63.60
2022-09-10T00:36:59.909Z,63.37
2022-09-10T00:39:27.424Z,63.42
2022-09-10T00:41:55.557Z,63.20
2022-09-10T00:44:38.319Z,63.14
2022-09-10T00:47:14.661Z,63.21
2022-09-10T00:49:49.546Z,63.20
2022-09-10T00:52:17.974Z,62.92
2022-09-10T00:54:46.902Z,62.98
2022-09-10T00:57:26.479Z,62.86
2022-09-10T01:00:00.169Z,62.73
2022-09-10T01:02:29.086Z,62.70
2022-09-10T01:04:57.573Z,62.60
2022-09-10T01:07:28.616Z,62.61
2022-09-10T01:10:02.787Z,62.76
2022-09-10T01:13:16.434Z,62.51
2022-09-10T01:15:53.897Z,62.92
2022-09-10T01:18:34.076Z,62.43
2022-09-10T01:21:42.805Z,62.28
2022-09-10T01:24:43.779Z,62.19
2022-09-10T01:27:39.844Z,62.33
2022-09-10T01:30:14.434Z,62.32
2022-09-10T01:32:49.617Z,61.88
2022-09-10T01:35:25.329Z,62.02
2022-09-10T01:38:03.158Z,61.87
2022-09-10T01:40:32.200Z,61.96
2022-09-10T01:43:07.280Z,61.89
2022-09-10T01:45:44.054Z,61.57
2022-09-10T01:48:32.988Z,61.70
2022-09-10T01:51:21.061Z,61.83
2022-09-10T01:54:26.214Z,61.95
2022-09-10T01:57:21.423Z,62.29
2022-09-10T02:00:10.903Z,62.06
2022-09-10T02:03:13.565Z,62.30
2022-09-10T02:05:45.001Z,62.21
2022-09-10T02:08:30.227Z,62.41
2022-09-10T02:11:03.244Z,62.32
2022-09-10T02:13:31.003Z,62.49
2022-09-10T02:15:59.042Z,62.45
2022-09-10T02:18:27.421Z,62.30
2022-09-10T02:20:58.116Z,62.47
2022-09-10T02:23:34.613Z,62.26
2022-09-10T02:26:02.200Z,62.33
2022-09-10T02:28:30.010Z,62.25
2022-09-10T02:30:57.549Z,62.28
2022-09-10T02:33:25.177Z,62.34
2022-09-10T02:35:52.667Z,62.17
2022-09-10T02:38:20.538Z,62.35
2022-09-10T02:40:48.881Z,62.44
2022-09-10T02:43:17.365Z,62.97
2022-09-10T02:45:45.144Z,62.67
2022-09-10T02:48:12.948Z,62.97
2022-09-10T02:50:41.050Z,62.87
2022-09-10T02:53:08.537Z,63.12
2022-09-10T02:55:36.030Z,62.85
2022-09-10T02:58:03.711Z,62.91
2022-09-10T03:00:31.272Z,62.74
2022-09-10T03:03:02.940Z,62.73
2022-09-10T03:05:30.885Z,62.63
2022-09-10T03:07:59.061Z,62.47
2022-09-10T03:10:26.632Z,62.13
2022-09-10T03:12:54.151Z,61.81
2022-09-10T03:15:21.673Z,61.45
2022-09-10T03:17:49.260Z,61.81
2022-09-10T03:20:16.948Z,61.72
2022-09-10T03:22:45.210Z,61.77
2022-09-10T03:25:12.695Z,61.70
2022-09-10T03:27:40.369Z,61.88
2022-09-10T03:30:08.672Z,61.87
2022-09-10T03:32:36.186Z,61.83
2022-09-10T03:35:03.639Z,61.94
2022-09-10T03:37:31.181Z,62.01
2022-09-10T03:39:58.786Z,61.93
2022-09-10T03:42:25.959Z,62.40
2022-09-10T03:44:53.079Z,62.20
2022-09-10T03:47:20.336Z,62.16
2022-09-10T03:49:47.785Z,62.24
2022-09-10T03:52:15.281Z,62.33
2022-09-10T03:54:43.099Z,62.23
2022-09-10T03:57:10.816Z,62.18
2022-09-10T03:59:38.307Z,62.52
2022-09-10T04:02:05.942Z,62.78
2022-09-10T04:04:33.506Z,62.74
2022-09-10T04:07:01.207Z,63.02
2022-09-10T04:09:28.753Z,62.94
2022-09-10T04:11:56.263Z,62.88
2022-09-10T04:14:23.753Z,63.06
2022-09-10T04:16:51.421Z,63.21
2022-09-10T04:19:18.951Z,63.04
2022-09-10T04:21:46.454Z,63.12
2022-09-10T04:24:14.214Z,63.36
2022-09-10T04:26:41.763Z,63.46
2022-09-10T04:29:09.240Z,63.47
2022-09-10T04:31:36.858Z,63.43
2022-09-10T04:34:04.414Z,63.19
2022-09-10T04:36:32.113Z,63.38
2022-09-10T04:38:59.709Z,63.26
2022-09-10T04:41:27.216Z,63.44
2022-09-10T04:43:54.783Z,63.66
2022-09-10T04:46:22.385Z,63.85
2022-09-10T04:48:49.875Z,63.89
2022-09-10T04:51:18.260Z,63.81
2022-09-10T04:53:46.498Z,63.82
2022-09-10T04:56:14.207Z,63.89
2022-09-10T04:58:42.277Z,63.84
2022-09-10T05:01:10.704Z,64.05
2022-09-10T05:03:38.703Z,63.90
2022-09-10T05:06:06.263Z,63.69
2022-09-10T05:08:33.481Z,63.72
2022-09-10T05:11:00.940Z,63.33
2022-09-10T05:13:28.624Z,63.23
2022-09-10T05:15:55.823Z,63.38
2022-09-10T05:18:22.936Z,63.12
2022-09-10T05:20:50.049Z,62.87
2022-09-10T05:23:17.417Z,62.70
2022-09-10T05:25:45.022Z,62.20
2022-09-10T05:28:12.329Z,62.03
2022-09-10T05:30:39.473Z,62.04
2022-09-10T05:33:06.703Z,62.22
2022-09-10T05:35:33.974Z,62.38
2022-09-10T05:38:01.458Z,62.58
2022-09-10T05:40:28.702Z,62.52
2022-09-10T05:42:56.285Z,62.40
2022-09-10T05:45:23.775Z,62.58
2022-09-10T05:47:50.956Z,62.74
2022-09-10T05:50:18.623Z,62.68
2022-09-10T05:52:46.302Z,63.02
2022-09-10T05:55:13.766Z,63.06
2022-09-10T05:57:40.992Z,63.23
2022-09-10T06:00:11.741Z,63.76
2022-09-10T06:02:39.158Z,63.94
2022-09-10T06:05:06.741Z,64.24
2022-09-10T06:07:34.265Z,64.43
2022-09-10T06:10:01.688Z,64.41
2022-09-10T06:12:28.883Z,64.36
2022-09-10T06:14:56.036Z,64.49
2022-09-10T06:17:23.187Z,64.62
2022-09-10T06:19:50.337Z,64.63
2022-09-10T06:22:17.738Z,64.78
2022-09-10T06:24:44.951Z,64.52
2022-09-10T06:27:12.212Z,64.63
2022-09-10T06:29:39.331Z,64.23
2022-09-10T06:32:06.559Z,63.90
2022-09-10T06:34:33.782Z,63.73
2022-09-10T06:37:00.972Z,63.64
2022-09-10T06:39:28.125Z,63.65
2022-09-10T06:41:55.312Z,63.50
2022-09-10T06:44:22.547Z,63.68
2022-09-10T06:47:39.055Z,63.61
2022-09-10T06:49:37.309Z,63.40
2022-09-10T06:52:04.657Z,63.24
2022-09-10T06:54:31.860Z,62.73
2022-09-10T06:56:59.092Z,60.93
2022-09-10T06:59:26.238Z,59.74
2022-09-10T07:01:53.385Z,59.42
2022-09-10T07:04:20.606Z,59.46
2022-09-10T07:06:47.795Z,59.62
2022-09-10T07:09:15.736Z,59.52
2022-09-10T07:11:42.940Z,59.57
2022-09-10T07:14:14.162Z,59.58
2022-09-10T07:16:41.641Z,59.62
2022-09-10T07:19:08.912Z,59.28
2022-09-10T07:21:36.082Z,59.29
2022-09-10T07:24:04.469Z,59.37
2022-09-10T07:26:32.106Z,59.18
2022-09-10T07:28:59.933Z,59.08
2022-09-10T07:31:33.720Z,59.34
2022-09-10T07:34:04.310Z,58.93
2022-09-10T07:36:32.174Z,58.68
2022-09-10T07:38:59.613Z,58.53
2022-09-10T07:41:27.039Z,57.54
2022-09-10T07:43:54.813Z,58.00
2022-09-10T07:46:23.623Z,58.04
2022-09-10T07:48:59.359Z,57.63
2022-09-10T07:51:30.055Z,57.62
2022-09-10T07:53:59.253Z,57.42
2022-09-10T07:56:26.678Z,58.00
2022-09-10T07:58:54.567Z,57.95
2022-09-10T08:01:22.091Z,58.14
2022-09-10T08:03:49.363Z,57.97
2022-09-10T08:06:17.227Z,57.75
2022-09-10T08:08:44.426Z,57.96
2022-09-10T08:11:18.386Z,58.18
2022-09-10T08:13:50.212Z,58.21
2022-09-10T08:16:21.606Z,58.15
2022-09-10T08:18:49.889Z,58.14
2022-09-10T08:21:19.299Z,57.73
2022-09-10T08:23:51.523Z,57.28
2022-09-10T08:26:19.314Z,57.35
2022-09-10T08:28:47.423Z,57.42
2022-09-10T08:31:14.785Z,57.52
2022-09-10T08:33:53.489Z,57.01
2022-09-10T08:36:21.602Z,57.02
2022-09-10T08:38:49.872Z,57.33
2022-09-10T08:41:25.687Z,57.11
2022-09-10T08:44:04.699Z,57.04
2022-09-10T08:46:47.561Z,57.00
2022-09-10T08:49:36.123Z,57.59
2022-09-10T08:52:15.266Z,57.88
2022-09-10T08:54:59.979Z,57.67
2022-09-10T08:57:41.791Z,57.31
2022-09-10T09:00:17.592Z,57.21
2022-09-10T09:03:10.103Z,56.24
2022-09-10T09:05:54.981Z,56.16
2022-09-10T09:08:26.311Z,56.08
2022-09-10T09:11:09.307Z,55.97
2022-09-10T09:13:42.708Z,55.42
2022-09-10T09:16:38.870Z,54.58
2022-09-10T09:19:27.276Z,54.35
2022-09-10T09:21:56.693Z,54.57
2022-09-10T09:24:24.231Z,53.48
2022-09-10T09:26:59.245Z,53.00
2022-09-10T09:29:36.181Z,52.87
2022-09-10T09:32:06.403Z,52.24
2022-09-10T09:34:50.382Z,51.78
2022-09-10T09:37:22.321Z,51.79
2022-09-10T09:40:11.738Z,52.37
2022-09-10T09:42:54.562Z,53.08
2022-09-10T09:45:33.346Z,53.24
2022-09-10T09:48:01.069Z,52.88
2022-09-10T09:50:31.720Z,51.17
2022-09-10T09:52:59.349Z,51.75
2022-09-10T09:55:44.892Z,51.04
2022-09-10T09:58:24.289Z,51.04
2022-09-10T10:01:06.393Z,50.92
2022-09-10T10:03:47.594Z,50.71
2022-09-10T10:06:17.140Z,49.61
2022-09-10T10:09:02.550Z,48.72
2022-09-10T10:11:51.997Z,47.86
2022-09-10T10:14:19.163Z,47.48
2022-09-10T10:16:47.909Z,47.13
2022-09-10T10:19:33.777Z,47.36
2022-09-10T10:22:16.219Z,46.65
2022-09-10T10:24:45.725Z,46.30
2022-09-10T10:27:36.750Z,46.85
2022-09-10T10:30:19.245Z,47.90
2022-09-10T10:32:53.513Z,47.48
2022-09-10T10:35:58.362Z,48.44
2022-09-10T10:38:32.354Z,46.27
2022-09-10T10:41:20.235Z,46.20
2022-09-10T10:44:29.142Z,45.43
2022-09-10T10:47:59.975Z,43.47
2022-09-10T10:50:53.713Z,42.93
2022-09-10T10:53:45.187Z,40.19
2022-09-10T10:56:27.928Z,38.05
2022-09-10T10:59:15.259Z,34.72
2022-09-10T11:01:51.862Z,32.12
2022-09-10T11:04:26.407Z,30.30
2022-09-10T11:07:13.654Z,29.57
2022-09-10T11:10:12.021Z,30.17
2022-09-10T11:13:04.544Z,30.65
2022-09-10T11:15:44.374Z,31.53
2022-09-10T11:18:54.597Z,31.54
2022-09-10T11:22:03.420Z,31.12
2022-09-10T11:24:45.648Z,30.29
2022-09-10T11:27:38.672Z,30.99
2022-09-10T11:30:17.724Z,29.31
2022-09-10T11:33:01.577Z,28.40
2022-09-10T11:35:57.229Z,30.29
2022-09-10T11:38:54.726Z,30.32
2022-09-10T11:41:30.683Z,29.29
2022-09-10T11:44:16.396Z,29.52
2022-09-10T11:46:55.825Z,32.17
2022-09-10T11:49:48.210Z,31.25
2022-09-10T11:52:18.178Z,31.68
2022-09-10T11:54:46.215Z,31.66
2022-09-10T11:57:25.299Z,33.31
2022-09-10T12:00:15.591Z,33.61
2022-09-10T12:03:31.889Z,34.04
2022-09-10T12:06:09.418Z,34.55
2022-09-10T12:09:24.314Z,36.21
2022-09-10T12:12:13.461Z,37.04
2022-09-10T12:14:41.652Z,37.72
2022-09-10T12:17:34.013Z,36.80
2022-09-10T12:20:05.822Z,34.53
2022-09-10T12:22:36.644Z,34.70
2022-09-10T12:25:26.296Z,34.94
2022-09-10T12:28:02.458Z,35.63
2022-09-10T12:30:29.909Z,33.91
2022-09-10T12:33:21.756Z,35.70
2022-09-10T12:35:50.844Z,35.72
2022-09-10T12:39:13.999Z,34.31
2022-09-10T12:41:41.101Z,35.95
2022-09-10T12:44:34.512Z,35.38
2022-09-10T12:47:16.986Z,35.55
2022-09-10T12:50:05.184Z,34.46
2022-09-10T12:52:35.382Z,34.77
2022-09-10T12:55:41.205Z,36.45
2022-09-10T12:58:26.986Z,37.69
2022-09-10T13:00:56.834Z,36.50
2022-09-10T13:03:30.361Z,36.84
2022-09-10T13:06:05.555Z,38.59
2022-09-10T13:08:43.579Z,38.79
2022-09-10T13:11:22.260Z,39.87
2022-09-10T13:14:02.168Z,39.86
2022-09-10T13:16:29.288Z,39.78
2022-09-10T13:19:14.988Z,39.58
2022-09-10T13:21:44.906Z,40.88
2022-09-10T13:24:34.043Z,38.33
2022-09-10T13:27:21.861Z,38.40
2022-09-10T13:30:11.947Z,39.63
2022-09-10T13:32:49.118Z,39.88
2022-09-10T13:35:19.397Z,38.61
2022-09-10T13:38:10.896Z,39.63
2022-09-10T13:41:27.641Z,38.34
2022-09-10T13:44:13.533Z,38.28
2022-09-10T13:46:50.321Z,39.46
2022-09-10T13:49:52.459Z,39.78
2022-09-10T13:52:29.140Z,37.49
2022-09-10T13:54:59.455Z,36.90
2022-09-10T13:57:31.424Z,36.29
2022-09-10T14:00:07.939Z,35.15
2022-09-10T14:02:47.508Z,34.72
2022-09-10T14:05:51.966Z,33.66
2022-09-10T14:08:25.266Z,33.88
2022-09-10T14:11:11.529Z,32.13
2022-09-10T14:13:57.844Z,31.88
2022-09-10T14:16:36.240Z,32.92
2022-09-10T14:19:13.222Z,33.01
2022-09-10T14:21:41.463Z,32.62
2022-09-10T14:24:48.396Z,31.33
2022-09-10T14:27:27.218Z,32.08
2022-09-10T14:30:24.055Z,31.45
2022-09-10T14:32:52.492Z,31.47
2022-09-10T14:35:45.484Z,32.48
2022-09-10T14:38:31.008Z,32.80
2022-09-10T14:41:25.703Z,33.45
2022-09-10T14:44:23.738Z,34.24
2022-09-10T14:46:59.498Z,35.19
2022-09-10T14:49:34.215Z,35.57
2022-09-10T14:52:03.025Z,33.33
2022-09-10T14:54:33.308Z,32.47
2022-09-10T14:57:16.045Z,32.43
2022-09-10T14:59:45.941Z,30.79
2022-09-10T15:02:27.448Z,31.42
2022-09-10T15:04:55.388Z,32.30
2022-09-10T15:07:22.684Z,32.80
2022-09-10T15:09:49.979Z,34.59
2022-09-10T15:12:25.851Z,35.77
2022-09-10T15:14:53.100Z,37.90
2022-09-10T15:17:20.710Z,38.94
2022-09-10T15:19:47.935Z,39.68
2022-09-10T15:22:24.278Z,38.71
2022-09-10T15:25:09.237Z,38.72
2022-09-10T15:27:37.869Z,38.34
2022-09-10T15:30:06.407Z,38.24
2022-09-10T15:32:33.588Z,38.25
2022-09-10T15:35:00.807Z,37.85
2022-09-10T15:37:28.071Z,38.63
2022-09-10T15:39:55.256Z,40.51
2022-09-10T15:42:22.500Z,40.26
2022-09-10T15:44:49.809Z,41.34
2022-09-10T15:47:16.957Z,41.82
2022-09-10T15:49:44.220Z,40.97
2022-09-10T15:52:11.449Z,42.26
2022-09-10T15:54:38.869Z,40.89
2022-09-10T15:57:06.227Z,40.53
2022-09-10T15:59:33.581Z,40.41
2022-09-10T16:02:00.871Z,40.13
2022-09-10T16:04:30.617Z,40.94
2022-09-10T16:06:59.872Z,40.92
2022-09-10T16:09:27.518Z,40.82
2022-09-10T16:11:54.781Z,41.09
2022-09-10T16:14:22.047Z,41.23
2022-09-10T16:16:49.374Z,42.63
2022-09-10T16:19:16.889Z,42.89
2022-09-10T16:21:44.106Z,43.66
2022-09-10T16:24:11.815Z,43.67
2022-09-10T16:26:41.657Z,44.61
2022-09-10T16:29:19.746Z,44.82
2022-09-10T16:31:46.965Z,45.92
2022-09-10T16:34:20.107Z,45.82
2022-09-10T16:36:48.593Z,46.19
2022-09-10T16:39:18.254Z,46.42
2022-09-10T16:41:49.558Z,46.99
2022-09-10T16:44:18.745Z,47.22
2022-09-10T16:46:46.631Z,47.36
2022-09-10T16:49:16.512Z,47.38
2022-09-10T16:51:47.005Z,47.45
2022-09-10T16:54:15.005Z,47.77
2022-09-10T16:56:45.469Z,48.45
2022-09-10T16:59:18.477Z,49.22
2022-09-10T17:01:46.899Z,49.20
2022-09-10T17:04:27.798Z,49.92
2022-09-10T17:06:57.731Z,50.34
2022-09-10T17:09:25.341Z,49.65
2022-09-10T17:11:52.886Z,49.78
2022-09-10T17:14:20.093Z,50.17
2022-09-10T17:16:47.345Z,50.35
2022-09-10T17:19:21.343Z,50.60
2022-09-10T17:21:50.900Z,50.47
2022-09-10T17:24:21.855Z,50.88
2022-09-10T17:26:50.751Z,51.36
2022-09-10T17:29:21.864Z,51.47
2022-09-10T17:31:50.442Z,51.33
2022-09-10T17:34:18.514Z,51.52
2022-09-10T17:36:47.674Z,51.61
2022-09-10T17:39:16.415Z,51.29
2022-09-10T17:41:44.672Z,51.43
2022-09-10T17:44:12.898Z,51.90
2022-09-10T17:46:40.437Z,52.39
2022-09-10T17:49:07.727Z,52.86
2022-09-10T17:51:35.647Z,52.37
2022-09-10T17:54:03.572Z,52.61
2022-09-10T17:56:31.789Z,52.98
2022-09-10T17:59:02.917Z,53.31
2022-09-10T18:01:37.091Z,53.32
2022-09-10T18:04:06.142Z,53.64
2022-09-10T18:06:38.010Z,53.33
2022-09-10T18:09:06.721Z,53.12
2022-09-10T18:11:39.544Z,52.86
2022-09-10T18:14:07.567Z,53.19
2022-09-10T18:16:36.310Z,53.48
2022-09-10T18:19:14.321Z,53.29
2022-09-10T18:21:43.901Z,53.75
2022-09-10T18:24:15.848Z,54.19
2022-09-10T18:26:47.517Z,54.05
2022-09-10T18:29:25.154Z,54.07
2022-09-10T18:31:56.322Z,53.73
2022-09-10T18:34:27.539Z,54.22
2022-09-10T18:36:58.608Z,54.65
2022-09-10T18:39:29.124Z,54.51
2022-09-10T18:41:57.076Z,54.63
2022-09-10T18:44:29.466Z,54.59
2022-09-10T18:46:56.689Z,54.62
2022-09-10T18:49:25.977Z,55.21
2022-09-10T18:51:55.939Z,55.15
2022-09-10T18:54:24.799Z,55.29
2022-09-10T18:56:52.005Z,55.14
2022-09-10T18:59:22.143Z,55.31
2022-09-10T19:01:52.824Z,55.09
2022-09-10T19:04:24.176Z,55.72
2022-09-10T19:06:52.381Z,55.34
2022-09-10T19:09:29.503Z,55.16
2022-09-10T19:11:59.414Z,55.22
2022-09-10T19:14:30.629Z,55.27
2022-09-10T19:16:59.982Z,55.47
2022-09-10T19:19:33.279Z,55.66
2022-09-10T19:22:03.151Z,55.37
2022-09-10T19:24:53.908Z,55.60
2022-09-10T19:27:18.405Z,56.00
2022-09-10T19:29:45.597Z,55.79
2022-09-10T19:32:12.784Z,55.94
2022-09-10T19:34:40.145Z,56.01
2022-09-10T19:37:07.352Z,56.00
2022-09-10T19:39:34.611Z,55.95
2022-09-10T19:42:01.735Z,55.90
2022-09-10T19:44:28.922Z,55.66
2022-09-10T19:46:56.124Z,56.00
2022-09-10T19:49:23.283Z,56.41
2022-09-10T19:51:50.378Z,56.73
2022-09-10T19:54:17.651Z,56.82
2022-09-10T19:56:44.954Z,56.81
2022-09-10T19:59:12.155Z,56.93
2022-09-10T20:01:42.710Z,56.70
2022-09-10T20:04:12.001Z,56.68
2022-09-10T20:06:40.335Z,56.50
2022-09-10T20:09:09.866Z,56.50
2022-09-10T20:11:38.115Z,56.13
2022-09-10T20:14:12.832Z,56.53
2022-09-10T20:16:43.920Z,56.89
2022-09-10T20:19:15.085Z,56.89
2022-09-10T20:21:42.473Z,56.93
2022-09-10T20:24:10.645Z,56.91
2022-09-10T20:26:39.256Z,56.61
2022-09-10T20:29:11.557Z,56.58
2022-09-10T20:31:40.389Z,56.26
2022-09-10T20:34:12.619Z,56.16
2022-09-10T20:36:40.378Z,56.53
2022-09-10T20:39:08.465Z,56.57
2022-09-10T20:41:35.956Z,56.50
2022-09-10T20:44:03.615Z,56.65
2022-09-10T20:46:31.689Z,56.89
2022-09-10T20:49:01.063Z,56.54
2022-09-10T20:51:32.624Z,56.47
2022-09-10T20:54:00.307Z,56.58
2022-09-10T20:56:28.068Z,56.84
2022-09-10T20:58:56.209Z,56.85
2022-09-10T21:01:26.554Z,56.68
2022-09-10T21:03:57.567Z,56.71
2022-09-10T21:06:28.681Z,56.66
2022-09-10T21:08:56.487Z,56.89
2022-09-10T21:11:27.743Z,56.72
2022-09-10T21:13:57.755Z,56.57
2022-09-10T21:16:28.631Z,56.81
2022-09-10T21:19:01.942Z,56.78
2022-09-10T21:21:35.042Z,56.50
2022-09-10T21:24:10.219Z,56.71
2022-09-10T21:26:39.915Z,56.62
2022-09-10T21:29:11.871Z,56.59
2022-09-10T21:31:39.295Z,56.76
2022-09-10T21:34:06.929Z,56.73
2022-09-10T21:36:37.235Z,56.66
2022-09-10T21:39:12.978Z,56.67
2022-09-10T21:41:50.906Z,56.36
2022-09-10T21:44:21.747Z,56.43
2022-09-10T21:46:49.960Z,56.63
2022-09-10T21:49:18.540Z,56.58
2022-09-10T21:51:46.179Z,56.70
2022-09-10T21:54:16.888Z,56.66
2022-09-10T21:56:44.315Z,56.24
2022-09-10T21:59:12.146Z,56.47
2022-09-10T22:01:43.894Z,56.54
2022-09-10T22:04:12.562Z,56.83
2022-09-10T22:06:39.815Z,56.63
2022-09-10T22:09:12.770Z,56.76
2022-09-10T22:11:44.823Z,56.78
2022-09-10T22:14:15.858Z,56.95
2022-09-10T22:16:44.111Z,57.03
2022-09-10T22:19:19.999Z,56.79
2022-09-10T22:21:47.323Z,56.63
2022-09-10T22:24:16.100Z,56.97
2022-09-10T22:26:44.531Z,56.94
2022-09-10T22:29:14.817Z,56.89
2022-09-10T22:31:42.025Z,56.69
2022-09-10T22:34:14.046Z,56.88
2022-09-10T22:36:44.382Z,56.89
2022-09-10T22:39:15.964Z,57.04
2022-09-10T22:41:44.474Z,57.09
2022-09-10T22:44:12.685Z,57.00
2022-09-10T22:46:41.069Z,56.90
2022-09-10T22:49:09.668Z,56.96
2022-09-10T22:51:40.175Z,57.10
2022-09-10T22:54:08.240Z,57.20
2022-09-10T22:56:35.602Z,57.18
2022-09-10T22:59:04.530Z,57.34
2022-09-10T23:01:36.974Z,57.43
2022-09-10T23:04:07.700Z,57.41
2022-09-10T23:06:38.021Z,57.49
2022-09-10T23:09:14.411Z,57.57
2022-09-10T23:11:42.664Z,57.21
2022-09-10T23:14:15.019Z,57.16
2022-09-10T23:16:45.487Z,57.43
2022-09-10T23:19:17.854Z,57.51
2022-09-10T23:21:49.668Z,57.54
2022-09-10T23:24:20.274Z,57.65
2022-09-10T23:26:48.144Z,57.53
2022-09-10T23:29:16.070Z,57.67
2022-09-10T23:31:44.870Z,57.97
2022-09-10T23:34:18.219Z,58.01
2022-09-10T23:36:48.753Z,58.24
2022-09-10T23:39:23.435Z,58.10
2022-09-10T23:41:53.757Z,57.85
2022-09-10T23:44:21.211Z,57.70
2022-09-10T23:46:48.967Z,57.98
2022-09-10T23:49:16.954Z,57.85
2022-09-10T23:51:44.496Z,58.22
2022-09-10T23:54:12.379Z,58.04
2022-09-10T23:56:40.068Z,57.69
2022-09-10T23:59:08.660Z,57.71
